sensor_id;sensor_type;location;lat;lon;timestamp;P1;durP1;ratioP1;P2;durP2;ratioP2
80557;SDS011;69901;43.524;-5.636;2023-05-17T00:00:06;5.95;;;0.80;;
80557;SDS011;69901;43.524;-5.636;2023-05-17T00:03:30;5.63;;;1.17;;
80557;SDS011;69901;43.524;-5.636;2023-05-17T00:06:54;3.45;;;0.80;;
80557;SDS011;69901;43.524;-5.636;2023-05-17T00:10:18;4.10;;;0.90;;
80557;SDS011;69901;43.524;-5.636;2023-05-17T00:13:42;5.35;;;0.85;;
80557;SDS011;69901;43.524;-5.636;2023-05-17T00:17:06;5.30;;;0.80;;
80557;SDS011;69901;43.524;-5.636;2023-05-17T00:20:30;8.67;;;0.83;;
80557;SDS011;69901;43.524;-5.636;2023-05-17T00:23:54;5.93;;;0.95;;
80557;SDS011;69901;43.524;-5.636;2023-05-17T00:27:18;5.55;;;0.77;;
80557;SDS011;69901;43.524;-5.636;2023-05-17T00:30:41;5.78;;;0.80;;
80557;SDS011;69901;43.524;-5.636;2023-05-17T00:34:06;5.25;;;0.90;;
80557;SDS011;69901;43.524;-5.636;2023-05-17T00:37:30;5.10;;;0.83;;
80557;SDS011;69901;43.524;-5.636;2023-05-17T00:40:54;5.82;;;0.80;;
80557;SDS011;69901;43.524;-5.636;2023-05-17T00:44:18;4.88;;;0.95;;
80557;SDS011;69901;43.524;-5.636;2023-05-17T00:47:41;6.32;;;0.85;;
80557;SDS011;69901;43.524;-5.636;2023-05-17T00:51:06;5.20;;;1.00;;
80557;SDS011;69901;43.524;-5.636;2023-05-17T00:54:31;5.53;;;0.80;;
80557;SDS011;69901;43.524;-5.636;2023-05-17T00:57:55;6.47;;;1.27;;
80557;SDS011;69901;43.524;-5.636;2023-05-17T01:01:20;8.23;;;1.75;;
80557;SDS011;69901;43.524;-5.636;2023-05-17T01:04:44;8.73;;;1.38;;
80557;SDS011;69901;43.524;-5.636;2023-05-17T01:08:08;10.45;;;1.10;;
80557;SDS011;69901;43.524;-5.636;2023-05-17T01:15:21;12.32;;;2.67;;
80557;SDS011;69901;43.524;-5.636;2023-05-17T01:26:40;11.68;;;2.10;;
80557;SDS011;69901;43.524;-5.636;2023-05-17T01:30:08;7.93;;;1.73;;
80557;SDS011;69901;43.524;-5.636;2023-05-17T01:33:33;8.70;;;1.50;;
80557;SDS011;69901;43.524;-5.636;2023-05-17T01:36:59;5.47;;;0.95;;
80557;SDS011;69901;43.524;-5.636;2023-05-17T01:40:23;6.35;;;1.02;;
80557;SDS011;69901;43.524;-5.636;2023-05-17T01:44:15;5.03;;;0.80;;
80557;SDS011;69901;43.524;-5.636;2023-05-17T01:51:16;7.50;;;0.98;;
80557;SDS011;69901;43.524;-5.636;2023-05-17T01:54:58;5.93;;;1.40;;
80557;SDS011;69901;43.524;-5.636;2023-05-17T01:58:31;7.72;;;1.70;;
80557;SDS011;69901;43.524;-5.636;2023-05-17T02:02:02;4.80;;;1.02;;
80557;SDS011;69901;43.524;-5.636;2023-05-17T02:05:26;9.40;;;1.23;;
80557;SDS011;69901;43.524;-5.636;2023-05-17T02:08:50;6.85;;;1.20;;
80557;SDS011;69901;43.524;-5.636;2023-05-17T02:12:14;6.85;;;1.40;;
80557;SDS011;69901;43.524;-5.636;2023-05-17T02:15:38;4.50;;;1.08;;
80557;SDS011;69901;43.524;-5.636;2023-05-17T02:19:03;5.57;;;1.42;;
80557;SDS011;69901;43.524;-5.636;2023-05-17T02:22:28;5.20;;;1.00;;
80557;SDS011;69901;43.524;-5.636;2023-05-17T02:25:52;5.57;;;1.00;;
80557;SDS011;69901;43.524;-5.636;2023-05-17T02:29:16;5.35;;;1.13;;
80557;SDS011;69901;43.524;-5.636;2023-05-17T02:32:41;4.78;;;0.93;;
80557;SDS011;69901;43.524;-5.636;2023-05-17T02:36:05;8.00;;;1.20;;
80557;SDS011;69901;43.524;-5.636;2023-05-17T02:39:31;5.80;;;1.10;;
80557;SDS011;69901;43.524;-5.636;2023-05-17T02:42:55;7.05;;;1.20;;
80557;SDS011;69901;43.524;-5.636;2023-05-17T02:46:18;4.00;;;0.90;;
80557;SDS011;69901;43.524;-5.636;2023-05-17T02:49:45;5.35;;;1.02;;
80557;SDS011;69901;43.524;-5.636;2023-05-17T02:53:09;4.18;;;1.00;;
80557;SDS011;69901;43.524;-5.636;2023-05-17T02:56:33;4.50;;;1.10;;
80557;SDS011;69901;43.524;-5.636;2023-05-17T02:59:57;3.95;;;0.90;;
80557;SDS011;69901;43.524;-5.636;2023-05-17T03:03:21;5.72;;;0.70;;
80557;SDS011;69901;43.524;-5.636;2023-05-17T03:06:45;4.28;;;0.80;;
80557;SDS011;69901;43.524;-5.636;2023-05-17T03:10:09;4.35;;;0.88;;
80557;SDS011;69901;43.524;-5.636;2023-05-17T03:13:33;4.40;;;0.73;;
80557;SDS011;69901;43.524;-5.636;2023-05-17T03:16:57;9.45;;;1.63;;
80557;SDS011;69901;43.524;-5.636;2023-05-17T03:20:21;5.30;;;1.25;;
80557;SDS011;69901;43.524;-5.636;2023-05-17T03:23:45;7.30;;;1.50;;
80557;SDS011;69901;43.524;-5.636;2023-05-17T03:27:09;7.05;;;1.33;;
80557;SDS011;69901;43.524;-5.636;2023-05-17T03:30:33;8.63;;;1.50;;
80557;SDS011;69901;43.524;-5.636;2023-05-17T03:33:57;6.82;;;1.25;;
80557;SDS011;69901;43.524;-5.636;2023-05-17T03:37:21;7.07;;;1.33;;
80557;SDS011;69901;43.524;-5.636;2023-05-17T03:40:45;4.95;;;1.00;;
80557;SDS011;69901;43.524;-5.636;2023-05-17T03:44:09;4.38;;;1.00;;
80557;SDS011;69901;43.524;-5.636;2023-05-17T03:47:33;5.13;;;0.93;;
80557;SDS011;69901;43.524;-5.636;2023-05-17T03:50:57;7.28;;;1.00;;
80557;SDS011;69901;43.524;-5.636;2023-05-17T03:54:21;5.25;;;0.65;;
80557;SDS011;69901;43.524;-5.636;2023-05-17T03:57:45;6.18;;;1.20;;
80557;SDS011;69901;43.524;-5.636;2023-05-17T04:01:09;4.30;;;1.00;;
80557;SDS011;69901;43.524;-5.636;2023-05-17T04:04:33;8.43;;;1.53;;
80557;SDS011;69901;43.524;-5.636;2023-05-17T04:07:57;4.22;;;1.10;;
80557;SDS011;69901;43.524;-5.636;2023-05-17T04:11:23;7.60;;;1.65;;
80557;SDS011;69901;43.524;-5.636;2023-05-17T04:14:47;8.98;;;1.98;;
80557;SDS011;69901;43.524;-5.636;2023-05-17T04:18:11;7.70;;;1.70;;
80557;SDS011;69901;43.524;-5.636;2023-05-17T04:21:35;6.67;;;1.60;;
80557;SDS011;69901;43.524;-5.636;2023-05-17T04:24:59;8.15;;;1.85;;
80557;SDS011;69901;43.524;-5.636;2023-05-17T04:28:23;12.57;;;2.03;;
80557;SDS011;69901;43.524;-5.636;2023-05-17T04:31:48;9.98;;;2.25;;
80557;SDS011;69901;43.524;-5.636;2023-05-17T04:35:12;7.43;;;2.53;;
80557;SDS011;69901;43.524;-5.636;2023-05-17T04:38:36;6.83;;;1.63;;
80557;SDS011;69901;43.524;-5.636;2023-05-17T04:42:00;10.68;;;2.47;;
80557;SDS011;69901;43.524;-5.636;2023-05-17T04:45:24;8.05;;;1.73;;
80557;SDS011;69901;43.524;-5.636;2023-05-17T04:48:47;7.28;;;1.80;;
80557;SDS011;69901;43.524;-5.636;2023-05-17T04:52:12;7.82;;;2.08;;
80557;SDS011;69901;43.524;-5.636;2023-05-17T04:55:36;6.73;;;1.57;;
80557;SDS011;69901;43.524;-5.636;2023-05-17T04:59:00;7.90;;;1.83;;
80557;SDS011;69901;43.524;-5.636;2023-05-17T05:02:25;6.63;;;1.67;;
80557;SDS011;69901;43.524;-5.636;2023-05-17T05:05:50;6.00;;;1.42;;
80557;SDS011;69901;43.524;-5.636;2023-05-17T05:09:14;8.18;;;1.63;;
80557;SDS011;69901;43.524;-5.636;2023-05-17T05:12:38;6.80;;;1.70;;
80557;SDS011;69901;43.524;-5.636;2023-05-17T05:16:03;5.78;;;2.20;;
80557;SDS011;69901;43.524;-5.636;2023-05-17T05:19:27;6.80;;;1.52;;
80557;SDS011;69901;43.524;-5.636;2023-05-17T05:22:51;10.45;;;1.33;;
80557;SDS011;69901;43.524;-5.636;2023-05-17T05:26:15;5.78;;;1.60;;
80557;SDS011;69901;43.524;-5.636;2023-05-17T05:29:39;7.07;;;1.50;;
80557;SDS011;69901;43.524;-5.636;2023-05-17T05:33:03;6.15;;;1.27;;
80557;SDS011;69901;43.524;-5.636;2023-05-17T05:36:27;7.93;;;1.27;;
80557;SDS011;69901;43.524;-5.636;2023-05-17T05:39:51;7.20;;;1.67;;
80557;SDS011;69901;43.524;-5.636;2023-05-17T05:43:15;8.75;;;1.60;;
80557;SDS011;69901;43.524;-5.636;2023-05-17T05:46:39;8.67;;;2.53;;
80557;SDS011;69901;43.524;-5.636;2023-05-17T05:50:03;10.15;;;1.42;;
80557;SDS011;69901;43.524;-5.636;2023-05-17T05:53:27;6.15;;;1.38;;
80557;SDS011;69901;43.524;-5.636;2023-05-17T05:56:51;8.80;;;1.65;;
80557;SDS011;69901;43.524;-5.636;2023-05-17T06:00:15;6.85;;;1.45;;
80557;SDS011;69901;43.524;-5.636;2023-05-17T06:03:39;6.23;;;1.30;;
80557;SDS011;69901;43.524;-5.636;2023-05-17T06:07:03;6.55;;;1.40;;
80557;SDS011;69901;43.524;-5.636;2023-05-17T06:10:27;6.45;;;1.60;;
80557;SDS011;69901;43.524;-5.636;2023-05-17T06:13:51;7.13;;;1.48;;
80557;SDS011;69901;43.524;-5.636;2023-05-17T06:17:15;6.07;;;1.55;;
80557;SDS011;69901;43.524;-5.636;2023-05-17T06:20:39;6.80;;;1.60;;
80557;SDS011;69901;43.524;-5.636;2023-05-17T06:24:03;7.18;;;1.63;;
80557;SDS011;69901;43.524;-5.636;2023-05-17T06:27:29;7.93;;;1.67;;
80557;SDS011;69901;43.524;-5.636;2023-05-17T06:30:53;8.32;;;1.50;;
80557;SDS011;69901;43.524;-5.636;2023-05-17T06:34:20;7.47;;;1.88;;
80557;SDS011;69901;43.524;-5.636;2023-05-17T06:37:44;6.57;;;1.67;;
80557;SDS011;69901;43.524;-5.636;2023-05-17T06:41:08;5.70;;;1.60;;
80557;SDS011;69901;43.524;-5.636;2023-05-17T06:44:32;6.88;;;2.10;;
80557;SDS011;69901;43.524;-5.636;2023-05-17T06:47:56;6.82;;;1.75;;
80557;SDS011;69901;43.524;-5.636;2023-05-17T06:51:20;8.18;;;2.30;;
80557;SDS011;69901;43.524;-5.636;2023-05-17T06:54:44;7.17;;;2.40;;
80557;SDS011;69901;43.524;-5.636;2023-05-17T06:58:08;11.63;;;2.50;;
80557;SDS011;69901;43.524;-5.636;2023-05-17T07:01:38;7.38;;;2.55;;
80557;SDS011;69901;43.524;-5.636;2023-05-17T07:05:03;10.65;;;2.35;;
80557;SDS011;69901;43.524;-5.636;2023-05-17T07:08:28;8.95;;;2.63;;
80557;SDS011;69901;43.524;-5.636;2023-05-17T07:11:52;7.23;;;2.23;;
80557;SDS011;69901;43.524;-5.636;2023-05-17T07:15:16;7.43;;;1.88;;
80557;SDS011;69901;43.524;-5.636;2023-05-17T07:18:40;7.13;;;2.00;;
80557;SDS011;69901;43.524;-5.636;2023-05-17T07:22:04;8.32;;;2.10;;
80557;SDS011;69901;43.524;-5.636;2023-05-17T07:25:30;8.70;;;2.35;;
80557;SDS011;69901;43.524;-5.636;2023-05-17T07:28:54;10.30;;;2.43;;
80557;SDS011;69901;43.524;-5.636;2023-05-17T07:32:18;7.72;;;1.88;;
80557;SDS011;69901;43.524;-5.636;2023-05-17T07:35:42;11.43;;;2.10;;
80557;SDS011;69901;43.524;-5.636;2023-05-17T07:39:09;6.80;;;2.10;;
80557;SDS011;69901;43.524;-5.636;2023-05-17T07:42:36;7.05;;;2.17;;
80557;SDS011;69901;43.524;-5.636;2023-05-17T07:46:01;6.80;;;1.60;;
80557;SDS011;69901;43.524;-5.636;2023-05-17T07:49:25;7.38;;;1.98;;
80557;SDS011;69901;43.524;-5.636;2023-05-17T07:52:49;7.47;;;1.65;;
80557;SDS011;69901;43.524;-5.636;2023-05-17T07:56:13;9.18;;;1.67;;
80557;SDS011;69901;43.524;-5.636;2023-05-17T07:59:37;7.53;;;1.40;;
80557;SDS011;69901;43.524;-5.636;2023-05-17T08:03:02;9.57;;;1.60;;
80557;SDS011;69901;43.524;-5.636;2023-05-17T08:06:00;7.13;;;1.27;;
80557;SDS011;69901;43.524;-5.636;2023-05-17T08:09:24;7.35;;;1.50;;
80557;SDS011;69901;43.524;-5.636;2023-05-17T08:12:48;7.53;;;1.25;;
80557;SDS011;69901;43.524;-5.636;2023-05-17T08:16:12;8.98;;;1.55;;
80557;SDS011;69901;43.524;-5.636;2023-05-17T08:19:37;6.97;;;1.20;;
80557;SDS011;69901;43.524;-5.636;2023-05-17T08:23:01;12.85;;;1.55;;
80557;SDS011;69901;43.524;-5.636;2023-05-17T08:26:25;8.23;;;1.40;;
80557;SDS011;69901;43.524;-5.636;2023-05-17T08:29:50;7.55;;;1.50;;
80557;SDS011;69901;43.524;-5.636;2023-05-17T08:33:14;7.22;;;1.60;;
80557;SDS011;69901;43.524;-5.636;2023-05-17T08:36:38;6.60;;;1.23;;
80557;SDS011;69901;43.524;-5.636;2023-05-17T08:40:04;7.57;;;1.75;;
80557;SDS011;69901;43.524;-5.636;2023-05-17T08:43:29;7.30;;;1.25;;
80557;SDS011;69901;43.524;-5.636;2023-05-17T08:46:53;11.98;;;1.33;;
80557;SDS011;69901;43.524;-5.636;2023-05-17T08:50:18;7.40;;;1.52;;
80557;SDS011;69901;43.524;-5.636;2023-05-17T08:53:43;7.13;;;2.10;;
80557;SDS011;69901;43.524;-5.636;2023-05-17T08:57:07;6.80;;;1.17;;
80557;SDS011;69901;43.524;-5.636;2023-05-17T09:00:34;7.05;;;1.67;;
80557;SDS011;69901;43.524;-5.636;2023-05-17T09:03:59;7.22;;;1.08;;
80557;SDS011;69901;43.524;-5.636;2023-05-17T09:07:24;8.88;;;1.30;;
80557;SDS011;69901;43.524;-5.636;2023-05-17T09:10:48;5.93;;;0.90;;
80557;SDS011;69901;43.524;-5.636;2023-05-17T09:14:13;7.00;;;1.30;;
80557;SDS011;69901;43.524;-5.636;2023-05-17T09:17:39;8.07;;;1.40;;
80557;SDS011;69901;43.524;-5.636;2023-05-17T09:21:03;6.55;;;1.30;;
80557;SDS011;69901;43.524;-5.636;2023-05-17T09:24:27;5.70;;;1.75;;
80557;SDS011;69901;43.524;-5.636;2023-05-17T09:27:53;5.67;;;1.03;;
80557;SDS011;69901;43.524;-5.636;2023-05-17T09:31:17;6.22;;;1.52;;
80557;SDS011;69901;43.524;-5.636;2023-05-17T09:34:57;7.70;;;1.38;;
80557;SDS011;69901;43.524;-5.636;2023-05-17T09:38:24;5.65;;;1.77;;
80557;SDS011;69901;43.524;-5.636;2023-05-17T09:41:49;7.40;;;1.40;;
80557;SDS011;69901;43.524;-5.636;2023-05-17T09:45:22;7.80;;;1.30;;
80557;SDS011;69901;43.524;-5.636;2023-05-17T09:48:51;7.47;;;1.75;;
80557;SDS011;69901;43.524;-5.636;2023-05-17T09:52:16;7.28;;;1.65;;
80557;SDS011;69901;43.524;-5.636;2023-05-17T09:55:51;7.07;;;1.52;;
80557;SDS011;69901;43.524;-5.636;2023-05-17T09:59:10;8.05;;;1.48;;
80557;SDS011;69901;43.524;-5.636;2023-05-17T10:01:40;5.00;;;1.30;;
80557;SDS011;69901;43.524;-5.636;2023-05-17T10:05:09;8.63;;;2.13;;
80557;SDS011;69901;43.524;-5.636;2023-05-17T10:08:34;6.97;;;1.27;;
80557;SDS011;69901;43.524;-5.636;2023-05-17T10:11:46;8.70;;;1.80;;
80557;SDS011;69901;43.524;-5.636;2023-05-17T10:15:11;7.70;;;1.17;;
80557;SDS011;69901;43.524;-5.636;2023-05-17T10:18:39;7.47;;;1.37;;
80557;SDS011;69901;43.524;-5.636;2023-05-17T10:22:03;6.68;;;1.25;;
80557;SDS011;69901;43.524;-5.636;2023-05-17T10:25:30;6.03;;;1.45;;
80557;SDS011;69901;43.524;-5.636;2023-05-17T10:28:56;8.10;;;1.30;;
80557;SDS011;69901;43.524;-5.636;2023-05-17T10:31:50;7.53;;;1.48;;
80557;SDS011;69901;43.524;-5.636;2023-05-17T10:35:16;5.47;;;1.23;;
80557;SDS011;69901;43.524;-5.636;2023-05-17T10:38:41;8.27;;;1.48;;
80557;SDS011;69901;43.524;-5.636;2023-05-17T10:42:07;5.20;;;1.13;;
80557;SDS011;69901;43.524;-5.636;2023-05-17T10:44:37;6.38;;;1.33;;
80557;SDS011;69901;43.524;-5.636;2023-05-17T10:47:03;6.47;;;1.23;;
80557;SDS011;69901;43.524;-5.636;2023-05-17T10:50:24;6.30;;;1.23;;
80557;SDS011;69901;43.524;-5.636;2023-05-17T10:57:35;5.60;;;1.17;;
80557;SDS011;69901;43.524;-5.636;2023-05-17T11:00:59;5.80;;;1.40;;
80557;SDS011;69901;43.524;-5.636;2023-05-17T11:04:18;5.27;;;1.20;;
80557;SDS011;69901;43.524;-5.636;2023-05-17T11:18:47;6.85;;;1.10;;
80557;SDS011;69901;43.524;-5.636;2023-05-17T11:22:17;5.60;;;1.07;;
80557;SDS011;69901;43.524;-5.636;2023-05-17T11:25:42;4.75;;;1.08;;
80557;SDS011;69901;43.524;-5.636;2023-05-17T11:29:18;6.63;;;1.02;;
80557;SDS011;69901;43.524;-5.636;2023-05-17T11:32:57;5.15;;;1.17;;
80557;SDS011;69901;43.524;-5.636;2023-05-17T11:36:22;4.55;;;1.17;;
80557;SDS011;69901;43.524;-5.636;2023-05-17T11:40:02;4.80;;;1.00;;
80557;SDS011;69901;43.524;-5.636;2023-05-17T11:42:29;6.57;;;1.15;;
80557;SDS011;69901;43.524;-5.636;2023-05-17T11:44:55;5.32;;;1.05;;
80557;SDS011;69901;43.524;-5.636;2023-05-17T11:47:22;5.80;;;1.00;;
80557;SDS011;69901;43.524;-5.636;2023-05-17T11:49:48;7.32;;;1.13;;
80557;SDS011;69901;43.524;-5.636;2023-05-17T11:53:13;8.80;;;1.45;;
80557;SDS011;69901;43.524;-5.636;2023-05-17T11:56:39;4.15;;;1.00;;
80557;SDS011;69901;43.524;-5.636;2023-05-17T12:00:04;5.65;;;1.10;;
80557;SDS011;69901;43.524;-5.636;2023-05-17T12:08:32;6.45;;;1.27;;
80557;SDS011;69901;43.524;-5.636;2023-05-17T12:11:04;6.63;;;1.33;;
80557;SDS011;69901;43.524;-5.636;2023-05-17T12:13:32;6.75;;;1.60;;
80557;SDS011;69901;43.524;-5.636;2023-05-17T12:15:59;6.17;;;1.03;;
80557;SDS011;69901;43.524;-5.636;2023-05-17T12:18:36;6.57;;;1.20;;
80557;SDS011;69901;43.524;-5.636;2023-05-17T12:21:03;5.38;;;1.63;;
80557;SDS011;69901;43.524;-5.636;2023-05-17T12:23:30;5.18;;;1.30;;
80557;SDS011;69901;43.524;-5.636;2023-05-17T12:26:04;5.25;;;1.13;;
80557;SDS011;69901;43.524;-5.636;2023-05-17T12:28:44;4.57;;;1.00;;
80557;SDS011;69901;43.524;-5.636;2023-05-17T12:31:16;5.32;;;1.02;;
80557;SDS011;69901;43.524;-5.636;2023-05-17T12:33:44;6.57;;;1.42;;
80557;SDS011;69901;43.524;-5.636;2023-05-17T12:36:12;5.28;;;1.20;;
80557;SDS011;69901;43.524;-5.636;2023-05-17T12:38:39;5.43;;;1.20;;
80557;SDS011;69901;43.524;-5.636;2023-05-17T12:42:04;4.77;;;1.07;;
80557;SDS011;69901;43.524;-5.636;2023-05-17T12:45:28;6.15;;;1.33;;
80557;SDS011;69901;43.524;-5.636;2023-05-17T12:48:52;5.80;;;1.20;;
80557;SDS011;69901;43.524;-5.636;2023-05-17T12:51:45;6.15;;;1.25;;
80557;SDS011;69901;43.524;-5.636;2023-05-17T12:55:11;6.30;;;1.20;;
80557;SDS011;69901;43.524;-5.636;2023-05-17T12:58:40;5.47;;;1.10;;
80557;SDS011;69901;43.524;-5.636;2023-05-17T13:02:11;5.80;;;1.25;;
80557;SDS011;69901;43.524;-5.636;2023-05-17T13:04:37;7.32;;;1.20;;
80557;SDS011;69901;43.524;-5.636;2023-05-17T13:07:03;5.80;;;1.00;;
80557;SDS011;69901;43.524;-5.636;2023-05-17T13:09:30;5.73;;;1.10;;
80557;SDS011;69901;43.524;-5.636;2023-05-17T13:11:58;7.53;;;1.38;;
80557;SDS011;69901;43.524;-5.636;2023-05-17T13:14:42;5.50;;;1.20;;
80557;SDS011;69901;43.524;-5.636;2023-05-17T13:17:23;6.38;;;1.33;;
80557;SDS011;69901;43.524;-5.636;2023-05-17T13:20:08;7.60;;;1.17;;
80557;SDS011;69901;43.524;-5.636;2023-05-17T13:22:37;5.45;;;1.02;;
80557;SDS011;69901;43.524;-5.636;2023-05-17T13:25:05;6.55;;;1.30;;
80557;SDS011;69901;43.524;-5.636;2023-05-17T13:27:31;6.17;;;1.17;;
80557;SDS011;69901;43.524;-5.636;2023-05-17T13:29:57;6.63;;;1.55;;
80557;SDS011;69901;43.524;-5.636;2023-05-17T13:32:23;6.43;;;1.30;;
80557;SDS011;69901;43.524;-5.636;2023-05-17T13:34:48;6.70;;;1.43;;
80557;SDS011;69901;43.524;-5.636;2023-05-17T13:37:14;6.20;;;1.23;;
80557;SDS011;69901;43.524;-5.636;2023-05-17T13:39:40;6.75;;;1.15;;
80557;SDS011;69901;43.524;-5.636;2023-05-17T13:42:05;7.90;;;0.90;;
80557;SDS011;69901;43.524;-5.636;2023-05-17T13:44:31;7.32;;;1.10;;
80557;SDS011;69901;43.524;-5.636;2023-05-17T13:46:56;5.50;;;1.27;;
80557;SDS011;69901;43.524;-5.636;2023-05-17T13:49:22;7.93;;;1.60;;
80557;SDS011;69901;43.524;-5.636;2023-05-17T13:51:47;7.50;;;1.20;;
80557;SDS011;69901;43.524;-5.636;2023-05-17T13:54:13;8.95;;;1.30;;
80557;SDS011;69901;43.524;-5.636;2023-05-17T13:56:38;6.97;;;1.73;;
80557;SDS011;69901;43.524;-5.636;2023-05-17T13:59:04;10.43;;;1.83;;
80557;SDS011;69901;43.524;-5.636;2023-05-17T14:01:29;8.40;;;1.40;;
80557;SDS011;69901;43.524;-5.636;2023-05-17T14:03:55;5.27;;;1.10;;
80557;SDS011;69901;43.524;-5.636;2023-05-17T14:06:21;6.00;;;1.02;;
80557;SDS011;69901;43.524;-5.636;2023-05-17T14:08:47;6.60;;;1.10;;
80557;SDS011;69901;43.524;-5.636;2023-05-17T14:11:12;5.50;;;1.15;;
80557;SDS011;69901;43.524;-5.636;2023-05-17T14:13:38;7.40;;;1.37;;
80557;SDS011;69901;43.524;-5.636;2023-05-17T14:16:04;8.98;;;1.23;;
80557;SDS011;69901;43.524;-5.636;2023-05-17T14:18:30;8.33;;;1.90;;
80557;SDS011;69901;43.524;-5.636;2023-05-17T14:20:56;6.43;;;0.90;;
80557;SDS011;69901;43.524;-5.636;2023-05-17T14:23:22;8.53;;;1.50;;
80557;SDS011;69901;43.524;-5.636;2023-05-17T14:26:46;8.82;;;1.30;;
80557;SDS011;69901;43.524;-5.636;2023-05-17T14:30:11;6.35;;;1.55;;
80557;SDS011;69901;43.524;-5.636;2023-05-17T14:33:35;8.35;;;1.40;;
80557;SDS011;69901;43.524;-5.636;2023-05-17T14:36:59;6.25;;;1.33;;
80557;SDS011;69901;43.524;-5.636;2023-05-17T14:39:24;5.23;;;1.20;;
80557;SDS011;69901;43.524;-5.636;2023-05-17T14:41:50;5.47;;;1.37;;
80557;SDS011;69901;43.524;-5.636;2023-05-17T14:44:15;7.07;;;1.10;;
80557;SDS011;69901;43.524;-5.636;2023-05-17T14:46:41;6.03;;;1.40;;
80557;SDS011;69901;43.524;-5.636;2023-05-17T14:49:06;6.47;;;1.53;;
80557;SDS011;69901;43.524;-5.636;2023-05-17T14:51:32;5.90;;;1.27;;
80557;SDS011;69901;43.524;-5.636;2023-05-17T14:53:57;9.35;;;1.80;;
80557;SDS011;69901;43.524;-5.636;2023-05-17T14:56:23;8.33;;;1.73;;
80557;SDS011;69901;43.524;-5.636;2023-05-17T14:58:49;7.82;;;2.40;;
80557;SDS011;69901;43.524;-5.636;2023-05-17T15:01:17;9.27;;;1.83;;
80557;SDS011;69901;43.524;-5.636;2023-05-17T15:03:43;8.10;;;1.90;;
80557;SDS011;69901;43.524;-5.636;2023-05-17T15:06:08;8.30;;;1.60;;
80557;SDS011;69901;43.524;-5.636;2023-05-17T15:08:34;6.53;;;1.63;;
80557;SDS011;69901;43.524;-5.636;2023-05-17T15:11:00;5.60;;;1.95;;
80557;SDS011;69901;43.524;-5.636;2023-05-17T15:14:21;8.43;;;1.70;;
80557;SDS011;69901;43.524;-5.636;2023-05-17T15:17:30;7.38;;;1.92;;
80557;SDS011;69901;43.524;-5.636;2023-05-17T15:20:06;5.70;;;2.10;;
80557;SDS011;69901;43.524;-5.636;2023-05-17T15:22:32;10.63;;;2.80;;
80557;SDS011;69901;43.524;-5.636;2023-05-17T15:25:17;10.32;;;2.55;;
80557;SDS011;69901;43.524;-5.636;2023-05-17T15:27:43;7.97;;;2.28;;
80557;SDS011;69901;43.524;-5.636;2023-05-17T15:30:08;9.33;;;2.80;;
80557;SDS011;69901;43.524;-5.636;2023-05-17T15:32:34;8.82;;;2.10;;
80557;SDS011;69901;43.524;-5.636;2023-05-17T15:35:00;7.47;;;3.00;;
80557;SDS011;69901;43.524;-5.636;2023-05-17T15:37:26;8.38;;;3.17;;
80557;SDS011;69901;43.524;-5.636;2023-05-17T15:39:51;8.53;;;2.73;;
80557;SDS011;69901;43.524;-5.636;2023-05-17T15:42:17;7.50;;;3.23;;
80557;SDS011;69901;43.524;-5.636;2023-05-17T15:44:42;10.20;;;3.70;;
80557;SDS011;69901;43.524;-5.636;2023-05-17T15:47:07;8.85;;;2.70;;
80557;SDS011;69901;43.524;-5.636;2023-05-17T15:49:33;7.47;;;3.30;;
80557;SDS011;69901;43.524;-5.636;2023-05-17T15:51:58;9.77;;;3.07;;
80557;SDS011;69901;43.524;-5.636;2023-05-17T15:54:24;10.13;;;3.30;;
80557;SDS011;69901;43.524;-5.636;2023-05-17T15:56:49;8.45;;;3.58;;
80557;SDS011;69901;43.524;-5.636;2023-05-17T15:59:15;8.87;;;3.53;;
80557;SDS011;69901;43.524;-5.636;2023-05-17T16:01:41;10.00;;;3.25;;
80557;SDS011;69901;43.524;-5.636;2023-05-17T16:04:10;7.73;;;3.87;;
80557;SDS011;69901;43.524;-5.636;2023-05-17T16:06:35;8.32;;;3.88;;
80557;SDS011;69901;43.524;-5.636;2023-05-17T16:09:01;7.33;;;3.73;;
80557;SDS011;69901;43.524;-5.636;2023-05-17T16:11:27;7.53;;;3.42;;
80557;SDS011;69901;43.524;-5.636;2023-05-17T16:13:52;8.57;;;3.57;;
80557;SDS011;69901;43.524;-5.636;2023-05-17T16:16:18;6.70;;;3.33;;
80557;SDS011;69901;43.524;-5.636;2023-05-17T16:18:43;10.32;;;3.47;;
80557;SDS011;69901;43.524;-5.636;2023-05-17T16:21:09;7.03;;;3.30;;
80557;SDS011;69901;43.524;-5.636;2023-05-17T16:23:34;12.07;;;3.80;;
80557;SDS011;69901;43.524;-5.636;2023-05-17T16:25:59;9.38;;;3.55;;
80557;SDS011;69901;43.524;-5.636;2023-05-17T16:28:25;8.43;;;3.17;;
80557;SDS011;69901;43.524;-5.636;2023-05-17T16:30:51;8.37;;;4.07;;
80557;SDS011;69901;43.524;-5.636;2023-05-17T16:33:16;9.23;;;3.88;;
80557;SDS011;69901;43.524;-5.636;2023-05-17T16:35:45;7.43;;;3.30;;
80557;SDS011;69901;43.524;-5.636;2023-05-17T16:38:12;7.00;;;2.50;;
80557;SDS011;69901;43.524;-5.636;2023-05-17T16:40:37;7.57;;;2.90;;
80557;SDS011;69901;43.524;-5.636;2023-05-17T16:43:03;7.37;;;4.23;;
80557;SDS011;69901;43.524;-5.636;2023-05-17T16:45:29;10.75;;;3.70;;
80557;SDS011;69901;43.524;-5.636;2023-05-17T16:47:54;9.67;;;3.83;;
80557;SDS011;69901;43.524;-5.636;2023-05-17T16:50:19;9.90;;;4.17;;
80557;SDS011;69901;43.524;-5.636;2023-05-17T16:52:45;9.10;;;3.53;;
80557;SDS011;69901;43.524;-5.636;2023-05-17T16:56:09;8.55;;;3.63;;
80557;SDS011;69901;43.524;-5.636;2023-05-17T16:59:33;8.18;;;3.55;;
80557;SDS011;69901;43.524;-5.636;2023-05-17T17:02:57;8.18;;;3.72;;
80557;SDS011;69901;43.524;-5.636;2023-05-17T17:06:21;9.43;;;4.00;;
80557;SDS011;69901;43.524;-5.636;2023-05-17T17:09:45;8.77;;;3.03;;
80557;SDS011;69901;43.524;-5.636;2023-05-17T17:13:09;7.88;;;3.38;;
80557;SDS011;69901;43.524;-5.636;2023-05-17T17:16:33;8.27;;;3.47;;
80557;SDS011;69901;43.524;-5.636;2023-05-17T17:19:57;6.40;;;2.92;;
80557;SDS011;69901;43.524;-5.636;2023-05-17T17:23:21;6.38;;;3.45;;
80557;SDS011;69901;43.524;-5.636;2023-05-17T17:26:45;6.97;;;3.23;;
80557;SDS011;69901;43.524;-5.636;2023-05-17T17:30:09;8.85;;;4.00;;
80557;SDS011;69901;43.524;-5.636;2023-05-17T17:33:33;8.75;;;4.13;;
80557;SDS011;69901;43.524;-5.636;2023-05-17T17:36:57;7.50;;;3.28;;
80557;SDS011;69901;43.524;-5.636;2023-05-17T17:40:21;7.90;;;3.83;;
80557;SDS011;69901;43.524;-5.636;2023-05-17T17:43:47;7.53;;;3.27;;
80557;SDS011;69901;43.524;-5.636;2023-05-17T17:47:11;6.78;;;2.92;;
80557;SDS011;69901;43.524;-5.636;2023-05-17T17:50:34;8.73;;;3.72;;
80557;SDS011;69901;43.524;-5.636;2023-05-17T17:53:58;7.28;;;3.30;;
80557;SDS011;69901;43.524;-5.636;2023-05-17T17:57:22;7.93;;;3.70;;
80557;SDS011;69901;43.524;-5.636;2023-05-17T18:00:46;10.43;;;3.80;;
80557;SDS011;69901;43.524;-5.636;2023-05-17T18:04:10;6.97;;;3.58;;
80557;SDS011;69901;43.524;-5.636;2023-05-17T18:07:35;7.45;;;3.67;;
80557;SDS011;69901;43.524;-5.636;2023-05-17T18:10:59;7.82;;;3.10;;
80557;SDS011;69901;43.524;-5.636;2023-05-17T18:14:23;8.10;;;3.33;;
80557;SDS011;69901;43.524;-5.636;2023-05-17T18:17:47;7.73;;;3.50;;
80557;SDS011;69901;43.524;-5.636;2023-05-17T18:21:11;7.68;;;2.90;;
80557;SDS011;69901;43.524;-5.636;2023-05-17T18:24:35;7.90;;;2.90;;
80557;SDS011;69901;43.524;-5.636;2023-05-17T18:28:00;8.85;;;3.72;;
80557;SDS011;69901;43.524;-5.636;2023-05-17T18:31:24;8.60;;;3.72;;
80557;SDS011;69901;43.524;-5.636;2023-05-17T18:34:48;8.23;;;3.50;;
80557;SDS011;69901;43.524;-5.636;2023-05-17T18:38:12;7.90;;;3.30;;
80557;SDS011;69901;43.524;-5.636;2023-05-17T18:41:36;7.80;;;3.25;;
80557;SDS011;69901;43.524;-5.636;2023-05-17T18:45:00;8.52;;;3.67;;
80557;SDS011;69901;43.524;-5.636;2023-05-17T18:48:24;6.95;;;2.38;;
80557;SDS011;69901;43.524;-5.636;2023-05-17T18:51:50;8.67;;;3.00;;
80557;SDS011;69901;43.524;-5.636;2023-05-17T18:55:14;7.45;;;2.70;;
80557;SDS011;69901;43.524;-5.636;2023-05-17T18:58:45;9.30;;;3.10;;
80557;SDS011;69901;43.524;-5.636;2023-05-17T19:02:09;9.75;;;2.30;;
80557;SDS011;69901;43.524;-5.636;2023-05-17T19:05:32;7.10;;;2.60;;